GCFIZ VNLT-VNLK
Flight info
| Callsign | GCFIZ |
|---|---|
| Flight time | 0h 46m |
| Altitude | 16000 |
| Route | DCT |
| Aircraft | BN2/L-G/L |
Departure
| Time | 2025-12-18 11:11 |
|---|---|
| Airport | Langtang Airport (VNLT) |
Arrival
| Time | 2025-12-18 11:57 |
|---|---|
| Airport | Tenzing-Hillary Airport (VNLK) |
| Time | Latitude | Longitude | Altitude | Speed | Heading |
|---|---|---|---|---|---|
| 2025-12-18 11:06 | 28.20033 | 85.58543 | 12566 ft | 0 kts | 260° |
| 2025-12-18 11:07 | 28.20032 | 85.58541 | 12566 ft | 1 kts | 249° |
| 2025-12-18 11:08 | 28.20020 | 85.58534 | 12566 ft | 5 kts | 188° |
| 2025-12-18 11:08 | 28.19895 | 85.58722 | 12566 ft | 11 kts | 114° |
| 2025-12-18 11:09 | 28.19862 | 85.58764 | 12566 ft | 0 kts | 283° |
| 2025-12-18 11:09 | 28.20027 | 85.58409 | 12566 ft | 57 kts | 293° |
| 2025-12-18 11:09 | 28.20201 | 85.57915 | 12606 ft | 73 kts | 298° |
| 2025-12-18 11:10 | 28.20671 | 85.55814 | 12890 ft | 91 kts | 277° |
| 2025-12-18 11:11 | 28.20890 | 85.54417 | 13240 ft | 89 kts | 281° |
| 2025-12-18 11:11 | 28.21158 | 85.53020 | 13604 ft | 89 kts | 279° |
| 2025-12-18 11:12 | 28.21153 | 85.51591 | 13956 ft | 89 kts | 262° |
| 2025-12-18 11:12 | 28.21053 | 85.50879 | 14131 ft | 89 kts | 263° |
| 2025-12-18 11:13 | 28.20581 | 85.48803 | 14642 ft | 90 kts | 255° |
| 2025-12-18 11:13 | 28.20437 | 85.48103 | 14813 ft | 89 kts | 261° |
| 2025-12-18 11:13 | 28.19890 | 85.46832 | 15142 ft | 90 kts | 228° |
| 2025-12-18 11:14 | 28.18559 | 85.45299 | 15620 ft | 89 kts | 224° |
| 2025-12-18 11:15 | 28.17633 | 85.44339 | 15922 ft | 89 kts | 223° |
| 2025-12-18 11:15 | 28.16707 | 85.43393 | 16038 ft | 98 kts | 223° |
| 2025-12-18 11:16 | 28.15354 | 85.42608 | 16022 ft | 117 kts | 197° |
| 2025-12-18 11:16 | 28.13680 | 85.42107 | 16016 ft | 127 kts | 194° |
| 2025-12-18 11:17 | 28.11888 | 85.41636 | 16014 ft | 130 kts | 194° |
| 2025-12-18 11:17 | 28.10995 | 85.41408 | 16014 ft | 131 kts | 193° |
| 2025-12-18 11:17 | 28.09183 | 85.40949 | 16013 ft | 132 kts | 193° |
| 2025-12-18 11:18 | 28.06480 | 85.40269 | 16013 ft | 134 kts | 193° |
| 2025-12-18 11:19 | 28.04718 | 85.40584 | 16012 ft | 133 kts | 143° |
| 2025-12-18 11:19 | 28.03522 | 85.42175 | 16012 ft | 134 kts | 122° |
| 2025-12-18 11:20 | 28.02607 | 85.44020 | 16012 ft | 134 kts | 118° |
| 2025-12-18 11:20 | 28.01751 | 85.45897 | 16012 ft | 134 kts | 117° |
| 2025-12-18 11:21 | 28.01272 | 85.47932 | 16012 ft | 134 kts | 102° |
| 2025-12-18 11:21 | 28.01106 | 85.48971 | 16012 ft | 134 kts | 102° |
| 2025-12-18 11:21 | 28.00795 | 85.51046 | 16012 ft | 134 kts | 101° |
| 2025-12-18 11:22 | 28.00414 | 85.54182 | 16007 ft | 134 kts | 89° |
| 2025-12-18 11:23 | 28.00613 | 85.56299 | 16012 ft | 134 kts | 84° |
| 2025-12-18 11:23 | 28.00732 | 85.57366 | 16012 ft | 134 kts | 84° |
| 2025-12-18 11:24 | 28.00938 | 85.60555 | 16018 ft | 134 kts | 100° |
| 2025-12-18 11:24 | 28.00589 | 85.62663 | 16013 ft | 134 kts | 103° |
| 2025-12-18 11:25 | 28.00206 | 85.64751 | 16012 ft | 134 kts | 103° |
| 2025-12-18 11:25 | 28.00009 | 85.65799 | 16012 ft | 134 kts | 103° |
| 2025-12-18 11:25 | 27.99611 | 85.67911 | 16012 ft | 134 kts | 103° |
| 2025-12-18 11:26 | 27.99029 | 85.71014 | 16015 ft | 134 kts | 103° |
| 2025-12-18 11:27 | 27.98618 | 85.73031 | 16013 ft | 132 kts | 105° |
| 2025-12-18 11:27 | 27.98171 | 85.75083 | 16013 ft | 133 kts | 105° |
| 2025-12-18 11:28 | 27.97718 | 85.77149 | 16013 ft | 134 kts | 105° |
| 2025-12-18 11:28 | 27.97265 | 85.79215 | 16013 ft | 134 kts | 105° |
| 2025-12-18 11:28 | 27.97038 | 85.80248 | 16013 ft | 134 kts | 105° |
| 2025-12-18 11:29 | 27.96593 | 85.82308 | 16013 ft | 134 kts | 105° |
| 2025-12-18 11:29 | 27.96114 | 85.84380 | 16013 ft | 134 kts | 104° |
| 2025-12-18 11:30 | 27.95406 | 85.87500 | 16013 ft | 135 kts | 105° |
| 2025-12-18 11:31 | 27.94927 | 85.89562 | 16013 ft | 135 kts | 105° |
| 2025-12-18 11:31 | 27.94440 | 85.91657 | 16013 ft | 135 kts | 105° |
| 2025-12-18 11:32 | 27.93954 | 85.93742 | 16013 ft | 135 kts | 105° |
| 2025-12-18 11:32 | 27.93682 | 85.94780 | 16013 ft | 135 kts | 113° |
| 2025-12-18 11:32 | 27.92703 | 85.96595 | 16013 ft | 135 kts | 124° |
| 2025-12-18 11:33 | 27.91652 | 85.98340 | 16013 ft | 135 kts | 125° |
| 2025-12-18 11:33 | 27.90576 | 86.00088 | 16013 ft | 135 kts | 125° |
| 2025-12-18 11:34 | 27.88952 | 86.02721 | 16013 ft | 135 kts | 125° |
| 2025-12-18 11:35 | 27.87869 | 86.04481 | 16013 ft | 135 kts | 125° |
| 2025-12-18 11:35 | 27.87328 | 86.05360 | 16013 ft | 135 kts | 125° |
| 2025-12-18 11:36 | 27.85701 | 86.07994 | 16013 ft | 135 kts | 125° |
| 2025-12-18 11:36 | 27.85163 | 86.08866 | 16013 ft | 135 kts | 125° |
| 2025-12-18 11:36 | 27.84091 | 86.10599 | 16013 ft | 135 kts | 125° |
| 2025-12-18 11:37 | 27.83016 | 86.12336 | 16013 ft | 135 kts | 125° |
| 2025-12-18 11:37 | 27.81925 | 86.14097 | 16013 ft | 135 kts | 125° |
| 2025-12-18 11:38 | 27.80295 | 86.16728 | 16013 ft | 135 kts | 125° |
| 2025-12-18 11:39 | 27.79190 | 86.18510 | 16013 ft | 135 kts | 125° |
| 2025-12-18 11:39 | 27.78085 | 86.20284 | 16013 ft | 135 kts | 125° |
| 2025-12-18 11:39 | 27.77542 | 86.21154 | 16013 ft | 135 kts | 125° |
| 2025-12-18 11:40 | 27.76465 | 86.22883 | 16013 ft | 135 kts | 125° |
| 2025-12-18 11:40 | 27.75385 | 86.24622 | 16013 ft | 135 kts | 125° |
| 2025-12-18 11:41 | 27.74301 | 86.26366 | 16013 ft | 135 kts | 125° |
| 2025-12-18 11:41 | 27.73210 | 86.28123 | 16013 ft | 135 kts | 125° |
| 2025-12-18 11:42 | 27.71595 | 86.30720 | 16013 ft | 135 kts | 125° |
| 2025-12-18 11:43 | 27.70513 | 86.32458 | 16013 ft | 135 kts | 125° |
| 2025-12-18 11:43 | 27.69440 | 86.34181 | 16013 ft | 135 kts | 125° |
| 2025-12-18 11:43 | 27.68893 | 86.35060 | 16013 ft | 135 kts | 125° |
| 2025-12-18 11:44 | 27.67804 | 86.36809 | 16013 ft | 135 kts | 125° |
| 2025-12-18 11:44 | 27.66694 | 86.38592 | 16013 ft | 135 kts | 125° |
| 2025-12-18 11:45 | 27.65595 | 86.40355 | 16013 ft | 135 kts | 125° |
| 2025-12-18 11:45 | 27.64500 | 86.42113 | 16013 ft | 135 kts | 125° |
| 2025-12-18 11:46 | 27.62874 | 86.44726 | 16013 ft | 135 kts | 125° |
| 2025-12-18 11:47 | 27.61789 | 86.46486 | 16013 ft | 135 kts | 125° |
| 2025-12-18 11:47 | 27.60743 | 86.48177 | 15951 ft | 123 kts | 125° |
| 2025-12-18 11:47 | 27.60229 | 86.49010 | 15807 ft | 134 kts | 125° |
| 2025-12-18 11:48 | 27.59126 | 86.50801 | 15577 ft | 141 kts | 125° |
| 2025-12-18 11:48 | 27.57994 | 86.52634 | 15373 ft | 143 kts | 125° |
| 2025-12-18 11:49 | 27.56836 | 86.54510 | 15173 ft | 143 kts | 125° |
| 2025-12-18 11:49 | 27.55672 | 86.56396 | 14978 ft | 143 kts | 125° |
| 2025-12-18 11:50 | 27.55222 | 86.59553 | 14676 ft | 144 kts | 71° |
| 2025-12-18 11:51 | 27.56008 | 86.61587 | 14429 ft | 144 kts | 62° |
| 2025-12-18 11:51 | 27.56504 | 86.62609 | 14287 ft | 150 kts | 61° |
| 2025-12-18 11:51 | 27.57563 | 86.64724 | 14028 ft | 154 kts | 60° |
| 2025-12-18 11:52 | 27.59235 | 86.67769 | 13430 ft | 149 kts | 45° |
| 2025-12-18 11:52 | 27.60016 | 86.68523 | 13156 ft | 145 kts | 39° |
| 2025-12-18 11:53 | 27.61737 | 86.69652 | 12510 ft | 148 kts | 19° |
| 2025-12-18 11:53 | 27.63524 | 86.70291 | 11794 ft | 120 kts | 17° |
| 2025-12-18 11:54 | 27.65810 | 86.70966 | 10593 ft | 114 kts | 4° |
| 2025-12-18 11:55 | 27.67190 | 86.71069 | 9968 ft | 87 kts | 9° |
| 2025-12-18 11:55 | 27.67754 | 86.71265 | 9782 ft | 81 kts | 40° |
| 2025-12-18 11:55 | 27.68359 | 86.72310 | 9431 ft | 71 kts | 62° |
| 2025-12-18 11:56 | 27.68721 | 86.73029 | 9340 ft | 22 kts | 59° |
| 2025-12-18 11:56 | 27.68749 | 86.73148 | 9340 ft | 2 kts | 150° |
| 2025-12-18 11:57 | 27.68748 | 86.73154 | 9340 ft | 0 kts | 65° |